sensor_id;sensor_type;location;lat;lon;timestamp;P1;durP1;ratioP1;P2;durP2;ratioP2
75400;SDS011;63974;47.538;18.972;2023-04-03T00:02:55;9.35;;;4.53;;
75400;SDS011;63974;47.538;18.972;2023-04-03T00:05:58;9.15;;;4.55;;
75400;SDS011;63974;47.538;18.972;2023-04-03T00:09:01;10.40;;;5.17;;
75400;SDS011;63974;47.538;18.972;2023-04-03T00:12:05;10.60;;;4.93;;
75400;SDS011;63974;47.538;18.972;2023-04-03T00:15:07;7.28;;;3.80;;
75400;SDS011;63974;47.538;18.972;2023-04-03T00:18:11;9.77;;;4.53;;
75400;SDS011;63974;47.538;18.972;2023-04-03T00:21:14;9.15;;;5.35;;
75400;SDS011;63974;47.538;18.972;2023-04-03T00:24:17;9.57;;;4.63;;
75400;SDS011;63974;47.538;18.972;2023-04-03T00:27:20;7.07;;;4.22;;
75400;SDS011;63974;47.538;18.972;2023-04-03T00:30:23;7.80;;;4.32;;
75400;SDS011;63974;47.538;18.972;2023-04-03T00:33:26;8.88;;;3.85;;
75400;SDS011;63974;47.538;18.972;2023-04-03T00:36:29;7.57;;;4.35;;
75400;SDS011;63974;47.538;18.972;2023-04-03T00:39:32;17.37;;;4.43;;
75400;SDS011;63974;47.538;18.972;2023-04-03T00:42:36;6.82;;;4.32;;
75400;SDS011;63974;47.538;18.972;2023-04-03T00:45:40;8.55;;;4.05;;
75400;SDS011;63974;47.538;18.972;2023-04-03T00:48:46;6.63;;;3.78;;
75400;SDS011;63974;47.538;18.972;2023-04-03T00:51:50;8.80;;;4.70;;
75400;SDS011;63974;47.538;18.972;2023-04-03T00:54:54;8.70;;;3.50;;
75400;SDS011;63974;47.538;18.972;2023-04-03T00:58:02;7.55;;;3.70;;
75400;SDS011;63974;47.538;18.972;2023-04-03T01:01:06;8.57;;;3.97;;
75400;SDS011;63974;47.538;18.972;2023-04-03T01:04:29;6.78;;;3.47;;
75400;SDS011;63974;47.538;18.972;2023-04-03T01:07:36;6.80;;;3.90;;
75400;SDS011;63974;47.538;18.972;2023-04-03T01:10:40;9.40;;;4.70;;
75400;SDS011;63974;47.538;18.972;2023-04-03T01:13:43;9.43;;;4.93;;
75400;SDS011;63974;47.538;18.972;2023-04-03T01:16:53;6.63;;;3.60;;
75400;SDS011;63974;47.538;18.972;2023-04-03T01:26:48;7.10;;;3.60;;
75400;SDS011;63974;47.538;18.972;2023-04-03T01:29:52;7.38;;;3.08;;
75400;SDS011;63974;47.538;18.972;2023-04-03T01:32:56;9.95;;;5.47;;
75400;SDS011;63974;47.538;18.972;2023-04-03T01:35:59;7.63;;;3.70;;
75400;SDS011;63974;47.538;18.972;2023-04-03T01:39:02;7.15;;;3.90;;
75400;SDS011;63974;47.538;18.972;2023-04-03T01:42:07;6.70;;;3.50;;
75400;SDS011;63974;47.538;18.972;2023-04-03T01:45:14;12.50;;;5.00;;
75400;SDS011;63974;47.538;18.972;2023-04-03T01:48:17;7.55;;;3.33;;
75400;SDS011;63974;47.538;18.972;2023-04-03T01:51:20;8.50;;;3.85;;
75400;SDS011;63974;47.538;18.972;2023-04-03T01:54:22;8.32;;;4.20;;
75400;SDS011;63974;47.538;18.972;2023-04-03T01:57:25;6.93;;;3.70;;
75400;SDS011;63974;47.538;18.972;2023-04-03T02:00:28;10.10;;;4.90;;
75400;SDS011;63974;47.538;18.972;2023-04-03T02:03:32;10.32;;;3.95;;
75400;SDS011;63974;47.538;18.972;2023-04-03T02:06:35;7.72;;;3.55;;
75400;SDS011;63974;47.538;18.972;2023-04-03T02:09:38;9.52;;;4.40;;
75400;SDS011;63974;47.538;18.972;2023-04-03T02:12:41;8.20;;;4.63;;
75400;SDS011;63974;47.538;18.972;2023-04-03T02:15:44;7.95;;;4.68;;
75400;SDS011;63974;47.538;18.972;2023-04-03T02:18:51;8.00;;;3.65;;
75400;SDS011;63974;47.538;18.972;2023-04-03T02:21:54;9.32;;;4.25;;
75400;SDS011;63974;47.538;18.972;2023-04-03T02:24:57;8.70;;;3.88;;
75400;SDS011;63974;47.538;18.972;2023-04-03T02:28:00;7.50;;;3.27;;
75400;SDS011;63974;47.538;18.972;2023-04-03T02:31:03;11.15;;;4.38;;
75400;SDS011;63974;47.538;18.972;2023-04-03T02:34:07;6.78;;;3.72;;
75400;SDS011;63974;47.538;18.972;2023-04-03T02:37:11;8.25;;;3.75;;
75400;SDS011;63974;47.538;18.972;2023-04-03T02:40:14;7.97;;;3.75;;
75400;SDS011;63974;47.538;18.972;2023-04-03T02:43:17;8.43;;;3.83;;
75400;SDS011;63974;47.538;18.972;2023-04-03T02:46:20;8.18;;;3.40;;
75400;SDS011;63974;47.538;18.972;2023-04-03T02:49:23;9.05;;;3.65;;
75400;SDS011;63974;47.538;18.972;2023-04-03T02:52:26;5.30;;;2.80;;
75400;SDS011;63974;47.538;18.972;2023-04-03T02:55:32;9.73;;;4.43;;
75400;SDS011;63974;47.538;18.972;2023-04-03T02:58:35;8.57;;;3.97;;
75400;SDS011;63974;47.538;18.972;2023-04-03T03:01:39;8.23;;;3.08;;
75400;SDS011;63974;47.538;18.972;2023-04-03T03:04:42;9.65;;;5.03;;
75400;SDS011;63974;47.538;18.972;2023-04-03T03:07:45;7.60;;;4.60;;
75400;SDS011;63974;47.538;18.972;2023-04-03T03:10:47;5.50;;;3.50;;
75400;SDS011;63974;47.538;18.972;2023-04-03T03:13:51;9.50;;;3.90;;
75400;SDS011;63974;47.538;18.972;2023-04-03T03:16:54;8.13;;;4.32;;
75400;SDS011;63974;47.538;18.972;2023-04-03T03:19:57;6.57;;;3.60;;
75400;SDS011;63974;47.538;18.972;2023-04-03T03:22:59;9.27;;;4.47;;
75400;SDS011;63974;47.538;18.972;2023-04-03T03:26:03;9.30;;;4.00;;
75400;SDS011;63974;47.538;18.972;2023-04-03T03:29:09;11.27;;;4.50;;
75400;SDS011;63974;47.538;18.972;2023-04-03T03:32:12;7.80;;;4.05;;
75400;SDS011;63974;47.538;18.972;2023-04-03T03:35:15;8.65;;;4.65;;
75400;SDS011;63974;47.538;18.972;2023-04-03T03:38:18;8.05;;;4.05;;
75400;SDS011;63974;47.538;18.972;2023-04-03T03:41:22;7.78;;;3.72;;
75400;SDS011;63974;47.538;18.972;2023-04-03T03:44:25;8.83;;;3.87;;
75400;SDS011;63974;47.538;18.972;2023-04-03T03:47:28;9.13;;;3.65;;
75400;SDS011;63974;47.538;18.972;2023-04-03T03:50:31;6.82;;;3.35;;
75400;SDS011;63974;47.538;18.972;2023-04-03T03:53:35;7.68;;;4.22;;
75400;SDS011;63974;47.538;18.972;2023-04-03T03:56:41;7.20;;;4.57;;
75400;SDS011;63974;47.538;18.972;2023-04-03T03:59:44;8.53;;;5.13;;
75400;SDS011;63974;47.538;18.972;2023-04-03T04:02:47;5.65;;;3.05;;
75400;SDS011;63974;47.538;18.972;2023-04-03T04:05:53;9.65;;;3.97;;
75400;SDS011;63974;47.538;18.972;2023-04-03T04:08:57;7.93;;;3.92;;
75400;SDS011;63974;47.538;18.972;2023-04-03T04:12:00;6.45;;;3.33;;
75400;SDS011;63974;47.538;18.972;2023-04-03T04:15:05;6.27;;;3.10;;
75400;SDS011;63974;47.538;18.972;2023-04-03T04:18:09;6.82;;;3.47;;
75400;SDS011;63974;47.538;18.972;2023-04-03T04:21:12;9.00;;;3.80;;
75400;SDS011;63974;47.538;18.972;2023-04-03T04:24:16;7.65;;;3.20;;
75400;SDS011;63974;47.538;18.972;2023-04-03T04:27:19;6.00;;;3.35;;
75400;SDS011;63974;47.538;18.972;2023-04-03T04:30:22;7.17;;;2.87;;
75400;SDS011;63974;47.538;18.972;2023-04-03T04:33:26;5.10;;;2.55;;
75400;SDS011;63974;47.538;18.972;2023-04-03T04:36:30;8.27;;;3.47;;
75400;SDS011;63974;47.538;18.972;2023-04-03T04:39:33;8.25;;;3.72;;
75400;SDS011;63974;47.538;18.972;2023-04-03T04:42:37;7.25;;;3.47;;
75400;SDS011;63974;47.538;18.972;2023-04-03T04:45:41;8.63;;;4.57;;
75400;SDS011;63974;47.538;18.972;2023-04-03T04:48:45;7.82;;;4.57;;
75400;SDS011;63974;47.538;18.972;2023-04-03T04:51:48;6.63;;;3.05;;
75400;SDS011;63974;47.538;18.972;2023-04-03T04:54:57;6.45;;;3.22;;
75400;SDS011;63974;47.538;18.972;2023-04-03T04:58:01;6.00;;;3.10;;
75400;SDS011;63974;47.538;18.972;2023-04-03T05:01:06;8.37;;;4.27;;
75400;SDS011;63974;47.538;18.972;2023-04-03T05:04:14;9.45;;;5.35;;
75400;SDS011;63974;47.538;18.972;2023-04-03T05:07:19;7.30;;;4.13;;
75400;SDS011;63974;47.538;18.972;2023-04-03T05:10:22;6.90;;;3.40;;
75400;SDS011;63974;47.538;18.972;2023-04-03T05:13:25;10.10;;;4.57;;
75400;SDS011;63974;47.538;18.972;2023-04-03T05:16:29;9.40;;;4.70;;
75400;SDS011;63974;47.538;18.972;2023-04-03T05:19:32;8.45;;;4.00;;
75400;SDS011;63974;47.538;18.972;2023-04-03T05:22:36;8.13;;;3.60;;
75400;SDS011;63974;47.538;18.972;2023-04-03T05:25:42;6.10;;;2.88;;
75400;SDS011;63974;47.538;18.972;2023-04-03T05:28:47;6.55;;;3.55;;
75400;SDS011;63974;47.538;18.972;2023-04-03T05:31:52;7.63;;;2.93;;
75400;SDS011;63974;47.538;18.972;2023-04-03T05:34:55;8.80;;;4.68;;
75400;SDS011;63974;47.538;18.972;2023-04-03T05:38:04;5.78;;;3.45;;
75400;SDS011;63974;47.538;18.972;2023-04-03T05:41:08;7.38;;;3.50;;
75400;SDS011;63974;47.538;18.972;2023-04-03T05:44:12;6.25;;;3.20;;
75400;SDS011;63974;47.538;18.972;2023-04-03T05:47:17;10.00;;;4.00;;
75400;SDS011;63974;47.538;18.972;2023-04-03T05:50:21;6.53;;;3.40;;
75400;SDS011;63974;47.538;18.972;2023-04-03T05:53:27;6.78;;;3.45;;
75400;SDS011;63974;47.538;18.972;2023-04-03T05:56:35;7.30;;;3.20;;
75400;SDS011;63974;47.538;18.972;2023-04-03T05:59:38;5.68;;;3.22;;
75400;SDS011;63974;47.538;18.972;2023-04-03T06:02:41;5.07;;;2.67;;
75400;SDS011;63974;47.538;18.972;2023-04-03T06:05:51;7.47;;;3.42;;
75400;SDS011;63974;47.538;18.972;2023-04-03T06:08:54;6.05;;;3.65;;
75400;SDS011;63974;47.538;18.972;2023-04-03T06:11:57;6.00;;;3.47;;
75400;SDS011;63974;47.538;18.972;2023-04-03T06:15:02;6.45;;;3.50;;
75400;SDS011;63974;47.538;18.972;2023-04-03T06:18:05;7.50;;;3.97;;
75400;SDS011;63974;47.538;18.972;2023-04-03T06:21:09;6.00;;;2.80;;
75400;SDS011;63974;47.538;18.972;2023-04-03T06:24:16;7.32;;;3.85;;
75400;SDS011;63974;47.538;18.972;2023-04-03T06:27:20;6.72;;;3.03;;
75400;SDS011;63974;47.538;18.972;2023-04-03T06:30:23;4.60;;;2.13;;
75400;SDS011;63974;47.538;18.972;2023-04-03T06:33:26;5.67;;;3.20;;
75400;SDS011;63974;47.538;18.972;2023-04-03T06:36:30;6.18;;;3.42;;
75400;SDS011;63974;47.538;18.972;2023-04-03T06:39:33;7.40;;;3.95;;
75400;SDS011;63974;47.538;18.972;2023-04-03T06:42:37;7.05;;;3.13;;
75400;SDS011;63974;47.538;18.972;2023-04-03T06:45:46;6.05;;;3.38;;
75400;SDS011;63974;47.538;18.972;2023-04-03T06:48:50;7.03;;;2.77;;
75400;SDS011;63974;47.538;18.972;2023-04-03T06:51:53;4.60;;;2.80;;
75400;SDS011;63974;47.538;18.972;2023-04-03T06:54:56;6.22;;;3.47;;
75400;SDS011;63974;47.538;18.972;2023-04-03T06:58:03;5.43;;;3.13;;
75400;SDS011;63974;47.538;18.972;2023-04-03T07:01:06;6.60;;;3.63;;
75400;SDS011;63974;47.538;18.972;2023-04-03T07:04:08;4.93;;;2.97;;
75400;SDS011;63974;47.538;18.972;2023-04-03T07:07:11;6.63;;;4.07;;
75400;SDS011;63974;47.538;18.972;2023-04-03T07:10:16;6.45;;;3.90;;
75400;SDS011;63974;47.538;18.972;2023-04-03T07:13:19;5.55;;;2.97;;
75400;SDS011;63974;47.538;18.972;2023-04-03T07:16:23;6.07;;;3.42;;
75400;SDS011;63974;47.538;18.972;2023-04-03T07:19:26;4.80;;;3.67;;
75400;SDS011;63974;47.538;18.972;2023-04-03T07:22:30;5.88;;;3.85;;
75400;SDS011;63974;47.538;18.972;2023-04-03T07:25:33;6.43;;;4.13;;
75400;SDS011;63974;47.538;18.972;2023-04-03T07:28:37;8.68;;;4.72;;
75400;SDS011;63974;47.538;18.972;2023-04-03T07:31:40;6.82;;;4.63;;
75400;SDS011;63974;47.538;18.972;2023-04-03T07:34:44;6.23;;;3.53;;
75400;SDS011;63974;47.538;18.972;2023-04-03T07:37:47;6.15;;;3.78;;
75400;SDS011;63974;47.538;18.972;2023-04-03T07:40:50;6.30;;;3.65;;
75400;SDS011;63974;47.538;18.972;2023-04-03T07:43:55;4.78;;;3.13;;
75400;SDS011;63974;47.538;18.972;2023-04-03T07:46:58;5.25;;;3.45;;
75400;SDS011;63974;47.538;18.972;2023-04-03T07:50:02;6.47;;;3.90;;
75400;SDS011;63974;47.538;18.972;2023-04-03T07:53:05;7.65;;;3.13;;
75400;SDS011;63974;47.538;18.972;2023-04-03T07:56:08;6.07;;;2.72;;
75400;SDS011;63974;47.538;18.972;2023-04-03T07:59:12;6.50;;;3.72;;
75400;SDS011;63974;47.538;18.972;2023-04-03T08:02:15;5.00;;;3.33;;
75400;SDS011;63974;47.538;18.972;2023-04-03T08:05:18;4.53;;;2.57;;
75400;SDS011;63974;47.538;18.972;2023-04-03T08:08:22;4.30;;;3.00;;
75400;SDS011;63974;47.538;18.972;2023-04-03T08:11:26;6.07;;;3.67;;
75400;SDS011;63974;47.538;18.972;2023-04-03T08:14:30;6.10;;;3.30;;
75400;SDS011;63974;47.538;18.972;2023-04-03T08:17:36;6.53;;;3.50;;
75400;SDS011;63974;47.538;18.972;2023-04-03T08:20:39;4.90;;;3.63;;
75400;SDS011;63974;47.538;18.972;2023-04-03T08:23:49;5.47;;;3.90;;
75400;SDS011;63974;47.538;18.972;2023-04-03T08:26:53;5.57;;;2.60;;
75400;SDS011;63974;47.538;18.972;2023-04-03T08:29:56;5.53;;;3.53;;
75400;SDS011;63974;47.538;18.972;2023-04-03T08:33:00;4.68;;;2.83;;
75400;SDS011;63974;47.538;18.972;2023-04-03T08:36:04;5.57;;;3.27;;
75400;SDS011;63974;47.538;18.972;2023-04-03T08:39:09;5.28;;;2.95;;
75400;SDS011;63974;47.538;18.972;2023-04-03T08:42:19;4.97;;;3.00;;
75400;SDS011;63974;47.538;18.972;2023-04-03T08:48:41;5.00;;;2.90;;
75400;SDS011;63974;47.538;18.972;2023-04-03T08:51:46;5.80;;;2.73;;
75400;SDS011;63974;47.538;18.972;2023-04-03T08:54:55;6.07;;;3.30;;
75400;SDS011;63974;47.538;18.972;2023-04-03T08:58:03;4.82;;;3.20;;
75400;SDS011;63974;47.538;18.972;2023-04-03T09:01:17;4.20;;;2.95;;
75400;SDS011;63974;47.538;18.972;2023-04-03T09:04:28;5.38;;;2.95;;
75400;SDS011;63974;47.538;18.972;2023-04-03T09:07:48;4.13;;;2.80;;
75400;SDS011;63974;47.538;18.972;2023-04-03T09:11:09;5.32;;;3.40;;
75400;SDS011;63974;47.538;18.972;2023-04-03T09:21:15;5.25;;;3.25;;
75400;SDS011;63974;47.538;18.972;2023-04-03T09:24:23;4.13;;;3.50;;
75400;SDS011;63974;47.538;18.972;2023-04-03T09:27:27;5.68;;;3.10;;
75400;SDS011;63974;47.538;18.972;2023-04-03T09:30:30;5.22;;;3.03;;
75400;SDS011;63974;47.538;18.972;2023-04-03T09:33:33;4.22;;;2.85;;
75400;SDS011;63974;47.538;18.972;2023-04-03T09:36:47;4.50;;;3.03;;
75400;SDS011;63974;47.538;18.972;2023-04-03T09:39:54;4.93;;;3.37;;
75400;SDS011;63974;47.538;18.972;2023-04-03T09:42:59;3.75;;;2.30;;
75400;SDS011;63974;47.538;18.972;2023-04-03T09:46:32;4.43;;;2.45;;
75400;SDS011;63974;47.538;18.972;2023-04-03T09:49:37;4.90;;;2.67;;
75400;SDS011;63974;47.538;18.972;2023-04-03T09:52:40;5.68;;;2.97;;
75400;SDS011;63974;47.538;18.972;2023-04-03T09:55:46;5.03;;;2.97;;
75400;SDS011;63974;47.538;18.972;2023-04-03T09:59:43;5.82;;;3.40;;
75400;SDS011;63974;47.538;18.972;2023-04-03T10:05:37;5.43;;;3.40;;
75400;SDS011;63974;47.538;18.972;2023-04-03T10:08:42;4.45;;;2.97;;
75400;SDS011;63974;47.538;18.972;2023-04-03T10:15:10;4.63;;;2.92;;
75400;SDS011;63974;47.538;18.972;2023-04-03T10:34:43;5.20;;;3.13;;
75400;SDS011;63974;47.538;18.972;2023-04-03T10:41:16;4.75;;;2.80;;
75400;SDS011;63974;47.538;18.972;2023-04-03T10:51:15;4.80;;;3.70;;
75400;SDS011;63974;47.538;18.972;2023-04-03T10:57:39;6.55;;;4.03;;
75400;SDS011;63974;47.538;18.972;2023-04-03T11:00:44;4.87;;;3.10;;
75400;SDS011;63974;47.538;18.972;2023-04-03T11:03:53;4.32;;;2.72;;
75400;SDS011;63974;47.538;18.972;2023-04-03T11:07:01;5.10;;;3.28;;
75400;SDS011;63974;47.538;18.972;2023-04-03T11:10:30;3.88;;;3.08;;
75400;SDS011;63974;47.538;18.972;2023-04-03T11:13:55;5.18;;;3.15;;
75400;SDS011;63974;47.538;18.972;2023-04-03T11:23:36;6.30;;;3.55;;
75400;SDS011;63974;47.538;18.972;2023-04-03T11:26:51;3.92;;;2.85;;
75400;SDS011;63974;47.538;18.972;2023-04-03T11:29:56;4.95;;;3.30;;
75400;SDS011;63974;47.538;18.972;2023-04-03T11:36:22;5.97;;;3.90;;
75400;SDS011;63974;47.538;18.972;2023-04-03T11:39:36;4.68;;;3.13;;
75400;SDS011;63974;47.538;18.972;2023-04-03T11:42:42;3.88;;;2.80;;
75400;SDS011;63974;47.538;18.972;2023-04-03T11:49:12;5.83;;;3.77;;
75400;SDS011;63974;47.538;18.972;2023-04-03T12:02:35;4.97;;;2.80;;
75400;SDS011;63974;47.538;18.972;2023-04-03T12:09:26;4.95;;;3.38;;
75400;SDS011;63974;47.538;18.972;2023-04-03T12:25:00;5.70;;;3.53;;
75400;SDS011;63974;47.538;18.972;2023-04-03T12:28:41;5.43;;;3.10;;
75400;SDS011;63974;47.538;18.972;2023-04-03T12:31:48;4.78;;;2.90;;
75400;SDS011;63974;47.538;18.972;2023-04-03T12:46:15;4.45;;;2.97;;
75400;SDS011;63974;47.538;18.972;2023-04-03T12:59:25;4.43;;;2.88;;
75400;SDS011;63974;47.538;18.972;2023-04-03T13:02:29;3.75;;;2.78;;
75400;SDS011;63974;47.538;18.972;2023-04-03T13:05:36;5.00;;;2.78;;
75400;SDS011;63974;47.538;18.972;2023-04-03T13:08:47;4.00;;;2.60;;
75400;SDS011;63974;47.538;18.972;2023-04-03T13:12:02;3.77;;;2.40;;
75400;SDS011;63974;47.538;18.972;2023-04-03T13:15:13;5.43;;;2.97;;
75400;SDS011;63974;47.538;18.972;2023-04-03T13:18:29;5.72;;;2.75;;
75400;SDS011;63974;47.538;18.972;2023-04-03T13:21:36;4.78;;;3.15;;
75400;SDS011;63974;47.538;18.972;2023-04-03T13:24:39;4.13;;;2.28;;
75400;SDS011;63974;47.538;18.972;2023-04-03T13:27:42;4.73;;;2.63;;
75400;SDS011;63974;47.538;18.972;2023-04-03T13:31:07;3.88;;;2.22;;
75400;SDS011;63974;47.538;18.972;2023-04-03T13:34:18;4.65;;;2.58;;
75400;SDS011;63974;47.538;18.972;2023-04-03T13:37:24;4.35;;;2.70;;
75400;SDS011;63974;47.538;18.972;2023-04-03T13:40:29;3.45;;;2.30;;
75400;SDS011;63974;47.538;18.972;2023-04-03T13:43:48;6.13;;;3.20;;
75400;SDS011;63974;47.538;18.972;2023-04-03T13:46:55;8.13;;;4.22;;
75400;SDS011;63974;47.538;18.972;2023-04-03T13:50:12;6.07;;;3.97;;
75400;SDS011;63974;47.538;18.972;2023-04-03T13:53:20;4.28;;;2.63;;
75400;SDS011;63974;47.538;18.972;2023-04-03T13:59:33;5.03;;;3.00;;
75400;SDS011;63974;47.538;18.972;2023-04-03T14:02:38;4.90;;;3.45;;
75400;SDS011;63974;47.538;18.972;2023-04-03T14:05:41;4.78;;;2.78;;
75400;SDS011;63974;47.538;18.972;2023-04-03T14:08:44;4.88;;;2.50;;
75400;SDS011;63974;47.538;18.972;2023-04-03T14:11:49;3.90;;;2.75;;
75400;SDS011;63974;47.538;18.972;2023-04-03T14:14:54;4.20;;;3.17;;
75400;SDS011;63974;47.538;18.972;2023-04-03T14:17:59;4.03;;;2.58;;
75400;SDS011;63974;47.538;18.972;2023-04-03T14:21:05;4.72;;;3.05;;
75400;SDS011;63974;47.538;18.972;2023-04-03T14:24:08;6.50;;;3.17;;
75400;SDS011;63974;47.538;18.972;2023-04-03T14:27:18;5.38;;;3.40;;
75400;SDS011;63974;47.538;18.972;2023-04-03T14:33:35;6.00;;;2.60;;
75400;SDS011;63974;47.538;18.972;2023-04-03T14:36:39;8.10;;;3.90;;
75400;SDS011;63974;47.538;18.972;2023-04-03T14:39:44;7.80;;;3.60;;
75400;SDS011;63974;47.538;18.972;2023-04-03T14:42:47;8.52;;;4.00;;
75400;SDS011;63974;47.538;18.972;2023-04-03T14:45:51;7.07;;;3.00;;
75400;SDS011;63974;47.538;18.972;2023-04-03T14:48:54;4.38;;;2.80;;
75400;SDS011;63974;47.538;18.972;2023-04-03T14:51:57;6.60;;;3.40;;
75400;SDS011;63974;47.538;18.972;2023-04-03T14:55:00;6.82;;;3.90;;
75400;SDS011;63974;47.538;18.972;2023-04-03T14:58:08;6.75;;;3.60;;
75400;SDS011;63974;47.538;18.972;2023-04-03T15:01:14;8.97;;;4.47;;
75400;SDS011;63974;47.538;18.972;2023-04-03T15:04:19;6.55;;;4.07;;
75400;SDS011;63974;47.538;18.972;2023-04-03T15:07:24;5.40;;;3.63;;
75400;SDS011;63974;47.538;18.972;2023-04-03T15:10:29;6.75;;;4.70;;
75400;SDS011;63974;47.538;18.972;2023-04-03T15:13:33;7.35;;;3.45;;
75400;SDS011;63974;47.538;18.972;2023-04-03T15:16:36;6.00;;;3.30;;
75400;SDS011;63974;47.538;18.972;2023-04-03T15:19:39;5.80;;;3.17;;
75400;SDS011;63974;47.538;18.972;2023-04-03T15:22:42;6.60;;;3.55;;
75400;SDS011;63974;47.538;18.972;2023-04-03T15:25:46;7.07;;;3.20;;
75400;SDS011;63974;47.538;18.972;2023-04-03T15:28:51;6.32;;;2.78;;
75400;SDS011;63974;47.538;18.972;2023-04-03T15:31:54;5.83;;;3.23;;
75400;SDS011;63974;47.538;18.972;2023-04-03T15:34:57;7.47;;;3.33;;
75400;SDS011;63974;47.538;18.972;2023-04-03T15:38:00;6.07;;;2.85;;
75400;SDS011;63974;47.538;18.972;2023-04-03T15:41:03;6.15;;;3.38;;
75400;SDS011;63974;47.538;18.972;2023-04-03T15:44:06;5.10;;;3.10;;
75400;SDS011;63974;47.538;18.972;2023-04-03T15:47:09;4.00;;;3.00;;
75400;SDS011;63974;47.538;18.972;2023-04-03T15:50:12;5.63;;;2.72;;
75400;SDS011;63974;47.538;18.972;2023-04-03T15:53:15;4.43;;;3.00;;
75400;SDS011;63974;47.538;18.972;2023-04-03T15:56:18;6.18;;;3.00;;
75400;SDS011;63974;47.538;18.972;2023-04-03T15:59:21;4.90;;;2.72;;
75400;SDS011;63974;47.538;18.972;2023-04-03T16:02:25;3.97;;;2.67;;
75400;SDS011;63974;47.538;18.972;2023-04-03T16:05:29;5.55;;;3.55;;
75400;SDS011;63974;47.538;18.972;2023-04-03T16:08:33;8.90;;;3.70;;
75400;SDS011;63974;47.538;18.972;2023-04-03T16:11:39;4.85;;;2.70;;
75400;SDS011;63974;47.538;18.972;2023-04-03T16:14:42;4.75;;;3.50;;
75400;SDS011;63974;47.538;18.972;2023-04-03T16:17:45;4.73;;;3.33;;
75400;SDS011;63974;47.538;18.972;2023-04-03T16:20:52;4.13;;;3.03;;
75400;SDS011;63974;47.538;18.972;2023-04-03T16:23:56;4.95;;;2.85;;
75400;SDS011;63974;47.538;18.972;2023-04-03T16:27:00;5.03;;;3.00;;
75400;SDS011;63974;47.538;18.972;2023-04-03T16:30:03;6.70;;;3.45;;
75400;SDS011;63974;47.538;18.972;2023-04-03T16:33:08;6.50;;;3.40;;
75400;SDS011;63974;47.538;18.972;2023-04-03T16:36:11;4.95;;;3.20;;
75400;SDS011;63974;47.538;18.972;2023-04-03T16:39:14;5.25;;;3.10;;
75400;SDS011;63974;47.538;18.972;2023-04-03T16:42:17;5.95;;;3.47;;
75400;SDS011;63974;47.538;18.972;2023-04-03T16:45:20;5.15;;;3.33;;
75400;SDS011;63974;47.538;18.972;2023-04-03T16:48:23;7.00;;;3.50;;
75400;SDS011;63974;47.538;18.972;2023-04-03T16:51:26;4.70;;;3.15;;
75400;SDS011;63974;47.538;18.972;2023-04-03T16:54:29;4.65;;;3.05;;
75400;SDS011;63974;47.538;18.972;2023-04-03T16:57:32;4.53;;;3.20;;
75400;SDS011;63974;47.538;18.972;2023-04-03T17:00:37;4.60;;;3.40;;
75400;SDS011;63974;47.538;18.972;2023-04-03T17:03:40;6.40;;;2.60;;
75400;SDS011;63974;47.538;18.972;2023-04-03T17:06:43;7.47;;;3.15;;
75400;SDS011;63974;47.538;18.972;2023-04-03T17:09:46;4.60;;;2.53;;
75400;SDS011;63974;47.538;18.972;2023-04-03T17:12:49;6.47;;;3.20;;
75400;SDS011;63974;47.538;18.972;2023-04-03T17:15:52;10.90;;;6.03;;
75400;SDS011;63974;47.538;18.972;2023-04-03T17:18:55;15.03;;;5.33;;
75400;SDS011;63974;47.538;18.972;2023-04-03T17:21:58;9.27;;;4.93;;
75400;SDS011;63974;47.538;18.972;2023-04-03T17:25:02;7.05;;;4.05;;
75400;SDS011;63974;47.538;18.972;2023-04-03T17:28:06;6.15;;;3.30;;
75400;SDS011;63974;47.538;18.972;2023-04-03T17:31:09;9.70;;;3.38;;
75400;SDS011;63974;47.538;18.972;2023-04-03T17:34:12;4.53;;;2.30;;
75400;SDS011;63974;47.538;18.972;2023-04-03T17:37:15;5.47;;;2.90;;
75400;SDS011;63974;47.538;18.972;2023-04-03T17:40:18;4.30;;;3.30;;
75400;SDS011;63974;47.538;18.972;2023-04-03T17:43:21;5.88;;;2.65;;
75400;SDS011;63974;47.538;18.972;2023-04-03T17:46:25;5.28;;;2.78;;
75400;SDS011;63974;47.538;18.972;2023-04-03T17:49:28;8.07;;;3.30;;
75400;SDS011;63974;47.538;18.972;2023-04-03T17:52:31;4.53;;;2.45;;
75400;SDS011;63974;47.538;18.972;2023-04-03T17:55:35;5.20;;;2.60;;
75400;SDS011;63974;47.538;18.972;2023-04-03T17:58:39;4.60;;;2.47;;
75400;SDS011;63974;47.538;18.972;2023-04-03T18:01:44;5.95;;;2.60;;
75400;SDS011;63974;47.538;18.972;2023-04-03T18:04:52;3.77;;;1.87;;
75400;SDS011;63974;47.538;18.972;2023-04-03T18:07:55;6.88;;;2.35;;
75400;SDS011;63974;47.538;18.972;2023-04-03T18:10:59;6.40;;;2.33;;
75400;SDS011;63974;47.538;18.972;2023-04-03T18:14:03;5.40;;;2.20;;
75400;SDS011;63974;47.538;18.972;2023-04-03T18:17:09;9.82;;;3.30;;
75400;SDS011;63974;47.538;18.972;2023-04-03T18:20:12;6.30;;;2.37;;
75400;SDS011;63974;47.538;18.972;2023-04-03T18:23:16;2.65;;;1.60;;
75400;SDS011;63974;47.538;18.972;2023-04-03T18:26:20;4.18;;;2.10;;
75400;SDS011;63974;47.538;18.972;2023-04-03T18:29:28;3.78;;;2.10;;
75400;SDS011;63974;47.538;18.972;2023-04-03T18:32:33;3.50;;;2.25;;
75400;SDS011;63974;47.538;18.972;2023-04-03T18:35:36;5.90;;;2.03;;
75400;SDS011;63974;47.538;18.972;2023-04-03T18:38:40;4.75;;;1.80;;
75400;SDS011;63974;47.538;18.972;2023-04-03T18:41:43;4.60;;;1.50;;
75400;SDS011;63974;47.538;18.972;2023-04-03T18:44:48;6.10;;;2.00;;
75400;SDS011;63974;47.538;18.972;2023-04-03T18:47:55;4.38;;;2.22;;
75400;SDS011;63974;47.538;18.972;2023-04-03T18:50:59;6.40;;;2.50;;
75400;SDS011;63974;47.538;18.972;2023-04-03T18:54:02;5.97;;;1.50;;
75400;SDS011;63974;47.538;18.972;2023-04-03T18:57:06;4.22;;;1.92;;
75400;SDS011;63974;47.538;18.972;2023-04-03T19:00:16;8.73;;;1.95;;
75400;SDS011;63974;47.538;18.972;2023-04-03T19:03:20;7.97;;;2.50;;
75400;SDS011;63974;47.538;18.972;2023-04-03T19:06:23;2.23;;;1.30;;
75400;SDS011;63974;47.538;18.972;2023-04-03T19:09:26;7.97;;;2.50;;
75400;SDS011;63974;47.538;18.972;2023-04-03T19:12:29;5.88;;;1.75;;
75400;SDS011;63974;47.538;18.972;2023-04-03T19:15:32;5.03;;;1.40;;
75400;SDS011;63974;47.538;18.972;2023-04-03T19:18:35;5.22;;;1.55;;
75400;SDS011;63974;47.538;18.972;2023-04-03T19:21:38;4.60;;;2.00;;
75400;SDS011;63974;47.538;18.972;2023-04-03T19:24:43;3.22;;;1.38;;
75400;SDS011;63974;47.538;18.972;2023-04-03T19:27:46;4.03;;;1.30;;
75400;SDS011;63974;47.538;18.972;2023-04-03T19:30:49;5.20;;;1.90;;
75400;SDS011;63974;47.538;18.972;2023-04-03T19:33:53;5.43;;;1.98;;
75400;SDS011;63974;47.538;18.972;2023-04-03T19:36:56;4.43;;;1.70;;
75400;SDS011;63974;47.538;18.972;2023-04-03T19:40:00;5.13;;;1.67;;
75400;SDS011;63974;47.538;18.972;2023-04-03T19:43:03;5.03;;;1.85;;
75400;SDS011;63974;47.538;18.972;2023-04-03T19:46:06;2.42;;;1.35;;
75400;SDS011;63974;47.538;18.972;2023-04-03T19:49:10;4.30;;;1.20;;
75400;SDS011;63974;47.538;18.972;2023-04-03T19:52:13;5.77;;;1.53;;
75400;SDS011;63974;47.538;18.972;2023-04-03T19:55:16;2.90;;;0.93;;
75400;SDS011;63974;47.538;18.972;2023-04-03T19:58:19;2.63;;;1.13;;
75400;SDS011;63974;47.538;18.972;2023-04-03T20:01:22;3.55;;;0.90;;
75400;SDS011;63974;47.538;18.972;2023-04-03T20:04:26;4.07;;;1.20;;
75400;SDS011;63974;47.538;18.972;2023-04-03T20:07:29;4.23;;;1.30;;
75400;SDS011;63974;47.538;18.972;2023-04-03T20:10:35;5.40;;;1.10;;
75400;SDS011;63974;47.538;18.972;2023-04-03T20:13:41;2.78;;;1.02;;
75400;SDS011;63974;47.538;18.972;2023-04-03T20:16:44;1.33;;;0.68;;
75400;SDS011;63974;47.538;18.972;2023-04-03T20:19:48;4.07;;;0.98;;